createdAt,value
2018-09-29T00:00:45.397Z,526.6
2018-09-29T00:01:47.824Z,526.6
2018-09-29T00:02:49.984Z,526.4
2018-09-29T00:03:52.137Z,526.4
2018-09-29T00:04:54.349Z,526.7
2018-09-29T00:05:56.778Z,526.9
2018-09-29T00:06:59.193Z,526.4
2018-09-29T00:08:01.617Z,527.1
2018-09-29T00:09:04.052Z,526.8
2018-09-29T00:10:06.653Z,527
2018-09-29T00:11:09.079Z,526.8
2018-09-29T00:12:11.509Z,526.5
2018-09-29T00:13:13.940Z,526.8
2018-09-29T00:14:16.096Z,526.6
2018-09-29T00:15:18.266Z,526.4
2018-09-29T00:16:20.474Z,526.1
2018-09-29T00:17:22.894Z,525.9
2018-09-29T00:18:25.060Z,525.7
2018-09-29T00:19:26.941Z,525.6
2018-09-29T00:20:29.363Z,525.7
2018-09-29T00:21:31.787Z,525.4
2018-09-29T00:22:34.226Z,525.2
2018-09-29T00:23:36.662Z,525.3
2018-09-29T00:24:39.086Z,525.3
2018-09-29T00:25:41.508Z,525.4
2018-09-29T00:26:43.678Z,525
2018-09-29T00:27:45.835Z,525.3
2018-09-29T00:28:48.265Z,524.9
2018-09-29T00:29:50.705Z,524.8
2018-09-29T00:30:53.145Z,524.7
2018-09-29T00:31:55.019Z,525.2
2018-09-29T00:32:57.186Z,525.4
2018-09-29T00:33:59.603Z,525.8
2018-09-29T00:35:02.039Z,526.2
2018-09-29T00:36:04.204Z,525.9
2018-09-29T00:37:06.373Z,526.2
2018-09-29T00:38:08.815Z,525.7
2018-09-29T00:39:11.251Z,525.4
2018-09-29T00:40:13.419Z,525.8
2018-09-29T00:41:15.578Z,525.2
2018-09-29T00:42:18.000Z,525.2
2018-09-29T00:43:20.164Z,525.1
2018-09-29T00:44:22.594Z,525.1
2018-09-29T00:45:25.025Z,524.9
2018-09-29T00:46:27.196Z,524.5
2018-09-29T00:47:29.063Z,524.7
2018-09-29T00:48:31.496Z,524.8
2018-09-29T00:49:33.928Z,525
2018-09-29T00:50:36.343Z,524.5
2018-09-29T00:51:38.496Z,524.6
2018-09-29T00:52:40.373Z,524.7
2018-09-29T00:53:42.849Z,524.5
2018-09-29T00:54:45.289Z,524.7
2018-09-29T00:55:47.188Z,524.7
2018-09-29T00:56:49.320Z,524.5
2018-09-29T00:57:51.475Z,524.6
2018-09-29T00:58:53.909Z,524.4
2018-09-29T00:59:56.363Z,524.5
2018-09-29T01:00:58.794Z,524.3
2018-09-29T01:02:00.676Z,524.4
2018-09-29T01:03:03.111Z,523.9
2018-09-29T01:04:05.544Z,524.3
2018-09-29T01:05:07.971Z,524
2018-09-29T01:06:10.104Z,523.7
2018-09-29T01:07:12.554Z,523.6
2018-09-29T01:08:14.178Z,523.7
2018-09-29T01:09:16.603Z,523.6
2018-09-29T01:10:19.042Z,523.8
2018-09-29T01:11:21.479Z,523.7
2018-09-29T01:12:23.945Z,523.9
2018-09-29T01:13:26.378Z,524
2018-09-29T01:14:28.540Z,523.8
2018-09-29T01:15:30.965Z,523.5
2018-09-29T01:16:32.812Z,523.4
2018-09-29T01:17:35.239Z,523.1
2018-09-29T01:18:36.836Z,522.8
2018-09-29T01:19:39.257Z,522.5
2018-09-29T01:20:41.415Z,522.6
2018-09-29T01:21:43.587Z,522.7
2018-09-29T01:22:45.747Z,523.1
2018-09-29T01:23:48.177Z,523.3
2018-09-29T01:24:50.605Z,523.7
2018-09-29T01:25:53.037Z,523.8
2018-09-29T01:26:55.199Z,523.4
2018-09-29T01:27:57.618Z,523.4
2018-09-29T01:28:59.777Z,523.4
2018-09-29T01:30:02.213Z,523.4
2018-09-29T01:31:04.653Z,523.6
2018-09-29T01:32:07.086Z,523.1
2018-09-29T01:33:09.247Z,523.2
2018-09-29T01:34:11.669Z,523.3
2018-09-29T01:35:13.840Z,523.5
2018-09-29T01:36:15.743Z,523.2
2018-09-29T01:37:18.169Z,523.7
2018-09-29T01:38:20.067Z,523.7
2018-09-29T01:39:22.493Z,523.2
2018-09-29T01:40:24.381Z,523.7
2018-09-29T01:41:26.797Z,523.7
2018-09-29T01:42:29.239Z,523.6
2018-09-29T01:43:31.675Z,523.6
2018-09-29T01:44:34.111Z,524
2018-09-29T01:45:36.541Z,524.1
2018-09-29T01:46:38.964Z,523.8
2018-09-29T01:47:40.828Z,523.8
2018-09-29T01:48:43.256Z,523.6
2018-09-29T01:49:45.695Z,523.9
2018-09-29T01:50:47.866Z,524
2018-09-29T01:51:50.307Z,523.5
2018-09-29T01:52:52.176Z,523.4
2018-09-29T01:53:54.612Z,523.7
2018-09-29T01:54:56.752Z,523.6
2018-09-29T01:55:58.910Z,523.6
2018-09-29T01:57:01.360Z,523.7
2018-09-29T01:58:03.783Z,523.9
2018-09-29T01:59:06.237Z,523.9
2018-09-29T02:00:08.676Z,524.3
2018-09-29T02:01:11.106Z,524.3
2018-09-29T02:02:13.535Z,524.4
2018-09-29T02:03:15.973Z,524.3
2018-09-29T02:04:18.132Z,524.3
2018-09-29T02:05:20.563Z,524.7
2018-09-29T02:06:22.997Z,525
2018-09-29T02:07:25.439Z,524.9
2018-09-29T02:08:27.879Z,525.1
2018-09-29T02:09:30.316Z,525.2
2018-09-29T02:10:32.750Z,525.1
2018-09-29T02:11:35.171Z,525.2
2018-09-29T02:12:37.313Z,525.4
2018-09-29T02:13:39.195Z,525.7
2018-09-29T02:14:41.627Z,525.8
2018-09-29T02:15:44.114Z,525.8
2018-09-29T02:16:46.535Z,525.9
2018-09-29T02:17:48.964Z,525.7
2018-09-29T02:18:51.393Z,525.6
2018-09-29T02:19:53.825Z,525.2
2018-09-29T02:20:56.252Z,525.5
2018-09-29T02:21:58.677Z,525.5
2018-09-29T02:23:00.840Z,525.8
2018-09-29T02:24:02.742Z,525.8
2018-09-29T02:25:05.169Z,525.3
2018-09-29T02:26:07.598Z,525.8
2018-09-29T02:27:10.026Z,525.6
2018-09-29T02:28:12.173Z,525.6
2018-09-29T02:29:14.335Z,525.4
2018-09-29T02:30:16.769Z,525.3
2018-09-29T02:31:19.199Z,525.4
2018-09-29T02:32:21.636Z,525.7
2018-09-29T02:33:24.057Z,526
2018-09-29T02:34:26.507Z,526
2018-09-29T02:35:28.654Z,525.9
2018-09-29T02:36:31.082Z,526.4
2018-09-29T02:37:33.511Z,526.3
2018-09-29T02:38:35.932Z,526.3
2018-09-29T02:39:38.368Z,526.1
2018-09-29T02:40:40.828Z,526.3
2018-09-29T02:41:43.266Z,526.4
2018-09-29T02:42:45.409Z,526.4
2018-09-29T02:43:47.844Z,526.4
2018-09-29T02:44:50.016Z,526.6
2018-09-29T02:45:52.461Z,526.6
2018-09-29T02:46:54.607Z,526.8
2018-09-29T02:47:57.046Z,526.9
2018-09-29T02:48:59.463Z,527.1
2018-09-29T02:50:02.519Z,527.7
2018-09-29T02:51:04.954Z,527.9
2018-09-29T02:52:06.832Z,528.2
2018-09-29T02:53:08.994Z,528.5
2018-09-29T02:54:11.457Z,528.3
2018-09-29T02:55:13.611Z,528
2018-09-29T02:56:16.040Z,527.6
2018-09-29T02:57:18.518Z,527.9
2018-09-29T02:58:20.682Z,528.1
2018-09-29T02:59:23.110Z,528.6
2018-09-29T03:00:25.556Z,528.5
2018-09-29T03:01:27.708Z,528.7
2018-09-29T03:02:30.137Z,528.8
2018-09-29T03:03:32.564Z,528.6
2018-09-29T03:04:34.998Z,528.8
2018-09-29T03:05:37.162Z,528.6
2018-09-29T03:06:39.025Z,529
2018-09-29T03:07:41.178Z,529.1
2018-09-29T03:08:43.330Z,529.1
2018-09-29T03:09:45.755Z,528.8
2018-09-29T03:10:48.197Z,528.9
2018-09-29T03:11:50.338Z,528.6
2018-09-29T03:12:52.498Z,528.8
2018-09-29T03:13:54.670Z,528.4
2018-09-29T03:14:57.105Z,528.9
2018-09-29T03:15:59.532Z,528.8
2018-09-29T03:17:01.954Z,528.5
2018-09-29T03:18:03.873Z,528.5
2018-09-29T03:19:06.090Z,528
2018-09-29T03:20:08.281Z,527.7
2018-09-29T03:21:10.729Z,527.5
2018-09-29T03:22:13.155Z,527.4
2018-09-29T03:23:15.972Z,527.5
2018-09-29T03:24:18.194Z,527.7
2018-09-29T03:25:19.805Z,528
2018-09-29T03:26:22.278Z,528.1
2018-09-29T03:27:24.705Z,528.4
2018-09-29T03:28:26.652Z,528.2
2018-09-29T03:29:28.804Z,527.9
2018-09-29T03:30:31.251Z,527.5
2018-09-29T03:31:33.720Z,527.3
2018-09-29T03:32:36.214Z,527.6
2018-09-29T03:33:38.382Z,528.1
2018-09-29T03:34:40.814Z,528.3
2018-09-29T03:35:43.255Z,528.5
2018-09-29T03:36:45.676Z,528.3
2018-09-29T03:37:48.106Z,528.2
2018-09-29T03:38:50.597Z,528.2
2018-09-29T03:39:53.022Z,528.1
2018-09-29T03:40:56.053Z,528
2018-09-29T03:41:58.482Z,528.3
2018-09-29T03:43:00.649Z,528.5
2018-09-29T03:44:02.804Z,528.2
2018-09-29T03:45:04.984Z,527.8
2018-09-29T03:46:07.124Z,527.7
2018-09-29T03:47:09.282Z,528
2018-09-29T03:48:11.440Z,528.3
2018-09-29T03:49:13.571Z,528
2018-09-29T03:50:15.463Z,528
2018-09-29T03:51:17.967Z,527.9
2018-09-29T03:52:20.387Z,527.7
2018-09-29T03:53:22.943Z,527.6
2018-09-29T03:54:25.114Z,528
2018-09-29T03:55:27.257Z,527.7
2018-09-29T03:56:29.694Z,527.7
2018-09-29T03:57:32.129Z,527.7
2018-09-29T03:58:34.555Z,527.8
2018-09-29T03:59:36.726Z,527.4
2018-09-29T04:00:39.152Z,528.1
2018-09-29T04:01:41.582Z,527.5
2018-09-29T04:02:43.760Z,527.2
2018-09-29T04:03:46.214Z,527.4
2018-09-29T04:04:48.636Z,527.1
2018-09-29T04:05:51.079Z,527.3
2018-09-29T04:06:53.512Z,527.1
2018-09-29T04:07:55.934Z,527
2018-09-29T04:08:58.086Z,527
2018-09-29T04:10:00.515Z,526.8
2018-09-29T04:11:02.968Z,526.8
2018-09-29T04:12:05.393Z,526.8
2018-09-29T04:13:07.828Z,526.7
2018-09-29T04:14:10.274Z,526.8
2018-09-29T04:15:12.721Z,527.3
2018-09-29T04:16:15.160Z,526.9
2018-09-29T04:17:17.570Z,527
2018-09-29T04:18:20.006Z,526.6
2018-09-29T04:19:22.446Z,526.7
2018-09-29T04:20:24.876Z,526.5
2018-09-29T04:21:27.319Z,526.8
2018-09-29T04:22:29.747Z,526.9
2018-09-29T04:23:32.183Z,526.8
2018-09-29T04:24:34.624Z,526.9
2018-09-29T04:25:37.057Z,526.8
2018-09-29T04:26:39.225Z,526.9
2018-09-29T04:27:41.653Z,526.7
2018-09-29T04:28:43.818Z,526.5
2018-09-29T04:29:46.246Z,526.6
2018-09-29T04:30:48.669Z,526.8
2018-09-29T04:31:50.816Z,526.4
2018-09-29T04:32:53.244Z,526.2
2018-09-29T04:33:55.392Z,526.2
2018-09-29T04:34:57.824Z,526.3
2018-09-29T04:35:59.977Z,526.1
2018-09-29T04:37:02.398Z,526.2
2018-09-29T04:38:04.835Z,526.1
2018-09-29T04:39:07.284Z,526.4
2018-09-29T04:40:09.753Z,526.2
2018-09-29T04:41:11.918Z,526.4
2018-09-29T04:42:14.347Z,526.5
2018-09-29T04:43:17.223Z,526.3
2018-09-29T04:44:19.283Z,526.6
2018-09-29T04:45:21.421Z,526.8
2018-09-29T04:46:23.376Z,526.7
2018-09-29T04:47:25.813Z,526.6
2018-09-29T04:48:27.695Z,526.7
2018-09-29T04:49:30.125Z,526.5
2018-09-29T04:50:32.544Z,526.3
2018-09-29T04:51:34.982Z,526.2
2018-09-29T04:52:37.137Z,526
2018-09-29T04:53:39.558Z,526.2
2018-09-29T04:54:41.716Z,525.8
2018-09-29T04:55:43.856Z,525.9
2018-09-29T04:56:46.278Z,525.5
2018-09-29T04:57:48.712Z,525.9
2018-09-29T04:58:51.154Z,525.7
2018-09-29T04:59:53.580Z,525.8
2018-09-29T05:00:56.006Z,525.4
2018-09-29T05:01:58.434Z,525.4
2018-09-29T05:03:00.596Z,525.3
2018-09-29T05:04:03.036Z,525.3
2018-09-29T05:05:05.467Z,525
2018-09-29T05:06:07.632Z,525.3
2018-09-29T05:07:10.073Z,524.8
2018-09-29T05:08:12.205Z,525.4
2018-09-29T05:09:14.364Z,525.1
2018-09-29T05:10:16.788Z,525
2018-09-29T05:11:19.222Z,525.3
2018-09-29T05:12:21.668Z,525.1
2018-09-29T05:13:24.093Z,525.2
2018-09-29T05:14:26.228Z,525.3
2018-09-29T05:15:28.658Z,524.9
2018-09-29T05:16:31.098Z,524.7
2018-09-29T05:17:32.969Z,524.3
2018-09-29T05:18:35.396Z,524.6
2018-09-29T05:19:37.561Z,524.4
2018-09-29T05:20:39.994Z,524.2
2018-09-29T05:21:42.154Z,524.4
2018-09-29T05:22:44.314Z,524.3
2018-09-29T05:23:46.747Z,524.4
2018-09-29T05:24:49.177Z,524.2
2018-09-29T05:25:51.608Z,524.3
2018-09-29T05:26:54.068Z,524.1
2018-09-29T05:27:57.120Z,523.8
2018-09-29T05:28:59.547Z,524
2018-09-29T05:30:01.986Z,523.9
2018-09-29T05:31:04.687Z,523.9
2018-09-29T05:32:07.154Z,523.7
2018-09-29T05:33:09.331Z,523.8
2018-09-29T05:34:11.761Z,523.8
2018-09-29T05:35:13.910Z,523.9
2018-09-29T05:36:16.059Z,523.7
2018-09-29T05:37:18.212Z,523.9
2018-09-29T05:38:20.942Z,523.6
2018-09-29T05:39:23.382Z,523.8
2018-09-29T05:40:25.548Z,523.9
2018-09-29T05:41:27.973Z,523.9
2018-09-29T05:42:30.417Z,523.6
2018-09-29T05:43:32.836Z,523.6
2018-09-29T05:44:35.264Z,523.4
2018-09-29T05:45:37.718Z,523.5
2018-09-29T05:46:40.148Z,523.3
2018-09-29T05:47:42.583Z,523.7
2018-09-29T05:48:45.051Z,523.6
2018-09-29T05:49:47.489Z,523.4
2018-09-29T05:50:49.922Z,523.6
2018-09-29T05:51:52.342Z,523.8
2018-09-29T05:52:54.576Z,523.3
2018-09-29T05:53:56.688Z,523.3
2018-09-29T05:54:58.956Z,523.3
2018-09-29T05:56:01.427Z,523.4
2018-09-29T05:57:03.589Z,522.8
2018-09-29T05:58:06.021Z,522.8
2018-09-29T05:59:08.455Z,522.9
2018-09-29T06:00:11.024Z,522.8
2018-09-29T06:01:13.483Z,522.6
2018-09-29T06:02:15.908Z,522.5
2018-09-29T06:03:18.359Z,522.7
2018-09-29T06:04:20.797Z,523
2018-09-29T06:05:23.671Z,522.7
2018-09-29T06:06:25.511Z,522.8
2018-09-29T06:07:28.570Z,522.5
2018-09-29T06:08:30.874Z,522.6
2018-09-29T06:09:33.299Z,522.6
2018-09-29T06:10:35.725Z,522.1
2018-09-29T06:11:38.158Z,522.1
2018-09-29T06:12:40.611Z,522.3
2018-09-29T06:13:43.050Z,522.3
2018-09-29T06:14:45.219Z,522.4
2018-09-29T06:15:47.381Z,522.6
2018-09-29T06:16:49.812Z,522.4
2018-09-29T06:17:51.700Z,522.1
2018-09-29T06:18:54.139Z,522.5
2018-09-29T06:19:56.023Z,521.9
2018-09-29T06:20:58.789Z,521.9
2018-09-29T06:22:00.990Z,522.1
2018-09-29T06:23:03.146Z,521.8
2018-09-29T06:24:05.327Z,522.2
2018-09-29T06:25:07.761Z,522.1
2018-09-29T06:26:10.190Z,521.9
2018-09-29T06:27:12.445Z,521.7
2018-09-29T06:28:14.891Z,521.7
2018-09-29T06:29:17.082Z,521.3
2018-09-29T06:30:19.526Z,521
2018-09-29T06:31:21.951Z,521
2018-09-29T06:32:24.416Z,520.9
2018-09-29T06:33:26.858Z,521.1
2018-09-29T06:34:29.305Z,521.5
2018-09-29T06:35:31.740Z,521.2
2018-09-29T06:36:34.181Z,521.1
2018-09-29T06:37:36.673Z,521.4
2018-09-29T06:38:39.106Z,520.5
2018-09-29T06:39:41.004Z,520.8
2018-09-29T06:40:43.650Z,520.4
2018-09-29T06:41:45.813Z,520.6
2018-09-29T06:42:47.726Z,521
2018-09-29T06:43:50.153Z,521.3
2018-09-29T06:44:52.604Z,521.2
2018-09-29T06:45:55.029Z,521.6
2018-09-29T06:46:57.458Z,521.6
2018-09-29T06:47:59.667Z,521.7
2018-09-29T06:49:01.861Z,521.5
2018-09-29T06:50:04.307Z,521.9
2018-09-29T06:51:06.465Z,521.9
2018-09-29T06:52:08.889Z,522
2018-09-29T06:53:11.050Z,522.2
2018-09-29T06:54:13.494Z,521.6
2018-09-29T06:55:15.633Z,521.7
2018-09-29T06:56:18.067Z,521.3
2018-09-29T06:57:20.210Z,520.8
2018-09-29T06:58:22.368Z,520.6
2018-09-29T06:59:24.540Z,520.2
2018-09-29T07:00:26.682Z,520.3
2018-09-29T07:01:29.124Z,519.9
2018-09-29T07:02:31.559Z,520.1
2018-09-29T07:03:34.005Z,519.9
2018-09-29T07:04:36.551Z,520.2
2018-09-29T07:05:38.986Z,520.1
2018-09-29T07:06:41.510Z,520.2
2018-09-29T07:07:43.694Z,519.6
2018-09-29T07:08:46.184Z,520
2018-09-29T07:09:48.351Z,519.8
2018-09-29T07:10:50.783Z,520.1
2018-09-29T07:11:52.923Z,520.2
2018-09-29T07:12:55.317Z,520.4
2018-09-29T07:13:57.544Z,520.3
2018-09-29T07:14:59.989Z,520.3
2018-09-29T07:16:02.464Z,519.9
2018-09-29T07:17:04.931Z,520.2
2018-09-29T07:18:07.106Z,519.9
2018-09-29T07:19:09.547Z,519.6
2018-09-29T07:20:11.714Z,519.7
2018-09-29T07:21:14.148Z,519.8
2018-09-29T07:22:16.330Z,519.7
2018-09-29T07:23:18.336Z,519.5
2018-09-29T07:24:20.559Z,519.4
2018-09-29T07:25:23.337Z,519.2
2018-09-29T07:26:25.772Z,519
2018-09-29T07:27:28.197Z,518.8
2018-09-29T07:28:30.363Z,519
2018-09-29T07:29:32.526Z,519.2
2018-09-29T07:30:34.687Z,518.8
2018-09-29T07:31:37.136Z,519
2018-09-29T07:32:39.597Z,518.7
2018-09-29T07:33:42.032Z,519
2018-09-29T07:34:44.460Z,518.6
2018-09-29T07:35:46.909Z,518.6
2018-09-29T07:36:49.331Z,518.5
2018-09-29T07:37:51.476Z,518.6
2018-09-29T07:38:53.348Z,518.7
2018-09-29T07:39:55.540Z,518.9
2018-09-29T07:40:57.984Z,518.4
2018-09-29T07:42:00.408Z,518.6
2018-09-29T07:43:02.863Z,518.6
2018-09-29T07:44:05.039Z,518.8
2018-09-29T07:45:07.468Z,518.3
2018-09-29T07:46:09.910Z,518.2
2018-09-29T07:47:12.346Z,518.2
2018-09-29T07:48:14.808Z,518.2
2018-09-29T07:49:17.459Z,517.9
2018-09-29T07:50:19.967Z,518
2018-09-29T07:51:22.142Z,517.7
2018-09-29T07:52:24.019Z,517.8
2018-09-29T07:53:26.449Z,517.8
2018-09-29T07:54:28.325Z,517.8
2018-09-29T07:55:30.468Z,518.2
2018-09-29T07:56:32.929Z,518.6
2018-09-29T07:57:35.357Z,518
2018-09-29T07:58:37.785Z,518.1
2018-09-29T07:59:40.234Z,517.8
2018-09-29T08:00:42.684Z,518
2018-09-29T08:01:45.115Z,517.7
2018-09-29T08:02:47.262Z,517.8
2018-09-29T08:03:49.418Z,517.7
2018-09-29T08:04:51.850Z,517.6
2018-09-29T08:05:54.024Z,517.8
2018-09-29T08:06:56.448Z,518
2018-09-29T08:07:58.603Z,517.5
2018-09-29T08:09:00.773Z,517.6
2018-09-29T08:10:03.208Z,517.6
2018-09-29T08:11:05.763Z,518
2018-09-29T08:12:08.247Z,517.6
2018-09-29T08:13:10.691Z,518
2018-09-29T08:14:13.134Z,517.8
2018-09-29T08:15:15.288Z,517.8
2018-09-29T08:16:17.724Z,517.9
2018-09-29T08:17:20.151Z,517.9
2018-09-29T08:18:22.580Z,518.1
2018-09-29T08:19:24.721Z,517.8
2018-09-29T08:20:27.185Z,518.3
2018-09-29T08:21:29.355Z,518.3
2018-09-29T08:22:31.796Z,517.6
2018-09-29T08:23:34.239Z,518
2018-09-29T08:24:36.677Z,518.3
2018-09-29T08:25:38.835Z,518.2
2018-09-29T08:26:41.273Z,518.1
2018-09-29T08:27:43.697Z,518.3
2018-09-29T08:28:46.136Z,518.3
2018-09-29T08:29:48.050Z,518.4
2018-09-29T08:30:50.208Z,518.5
2018-09-29T08:31:52.637Z,518.1
2018-09-29T08:32:54.533Z,518.4
2018-09-29T08:33:56.956Z,518.4
2018-09-29T08:34:59.098Z,518.4
2018-09-29T08:36:01.536Z,518.4
2018-09-29T08:37:03.958Z,518
2018-09-29T08:38:06.126Z,518.6
2018-09-29T08:39:08.569Z,518.7
2018-09-29T08:40:10.704Z,518.6
2018-09-29T08:41:13.150Z,518.4
2018-09-29T08:42:15.587Z,518.7
2018-09-29T08:43:18.021Z,518.4
2018-09-29T08:44:20.162Z,518.7
2018-09-29T08:45:22.590Z,519
2018-09-29T08:46:24.773Z,518.8
2018-09-29T08:47:27.211Z,518.5
2018-09-29T08:48:29.377Z,518.6
2018-09-29T08:49:31.546Z,519
2018-09-29T08:50:33.971Z,519.2
2018-09-29T08:51:36.138Z,519.4
2018-09-29T08:52:38.600Z,519.2
2018-09-29T08:53:41.180Z,519.3
2018-09-29T08:54:43.661Z,519.1
2018-09-29T08:55:46.093Z,519.3
2018-09-29T08:56:48.553Z,520
2018-09-29T08:57:50.982Z,519.4
2018-09-29T08:58:53.415Z,520
2018-09-29T08:59:55.887Z,519.5
2018-09-29T09:00:57.480Z,519.1
2018-09-29T09:01:59.909Z,519.1
2018-09-29T09:03:02.357Z,518.8
2018-09-29T09:04:05.040Z,518.9
2018-09-29T09:05:07.512Z,519.4
2018-09-29T09:06:09.676Z,519.3
2018-09-29T09:07:12.122Z,518.7
2018-09-29T09:08:14.593Z,519.2
2018-09-29T09:09:17.228Z,519.2
2018-09-29T09:10:19.658Z,519.2
2018-09-29T09:11:22.117Z,519.4
2018-09-29T09:12:24.272Z,519.8
2018-09-29T09:13:26.709Z,520.5
2018-09-29T09:14:28.872Z,520.2
2018-09-29T09:15:31.299Z,520.5
2018-09-29T09:16:33.746Z,521.1
2018-09-29T09:17:35.908Z,520.8
2018-09-29T09:18:38.394Z,521.4
2018-09-29T09:19:40.866Z,521.3
2018-09-29T09:20:43.297Z,521.9
2018-09-29T09:21:45.726Z,521.9
2018-09-29T09:22:48.327Z,521.6
2018-09-29T09:23:50.594Z,521.9
2018-09-29T09:24:53.030Z,521.9
2018-09-29T09:25:55.463Z,521.6
2018-09-29T09:26:57.360Z,521.4
2018-09-29T09:27:59.793Z,521.6
2018-09-29T09:29:01.680Z,522
2018-09-29T09:30:04.171Z,522
2018-09-29T09:31:06.601Z,522
2018-09-29T09:32:08.759Z,521.7
2018-09-29T09:33:11.202Z,522
2018-09-29T09:34:13.640Z,521.8
2018-09-29T09:35:16.069Z,521.6
2018-09-29T09:36:18.498Z,522
2018-09-29T09:37:20.944Z,521.9
2018-09-29T09:38:23.092Z,521.8
2018-09-29T09:39:25.528Z,521.8
2018-09-29T09:40:27.962Z,522.9
2018-09-29T09:41:30.403Z,522.6
2018-09-29T09:42:32.280Z,522.5
2018-09-29T09:43:35.151Z,522.9
2018-09-29T09:44:37.614Z,523
2018-09-29T09:45:40.047Z,522.8
2018-09-29T09:46:41.944Z,522.4
2018-09-29T09:47:44.390Z,522.6
2018-09-29T09:48:46.812Z,522.7
2018-09-29T09:49:49.252Z,522.3
2018-09-29T09:50:51.135Z,523.1
2018-09-29T09:51:53.576Z,522.6
2018-09-29T09:52:56.006Z,523.3
2018-09-29T09:53:58.437Z,522.6
2018-09-29T09:55:00.334Z,523
2018-09-29T09:56:02.693Z,522.4
2018-09-29T09:57:04.793Z,523.3
2018-09-29T09:58:06.937Z,523.2
2018-09-29T09:59:09.090Z,522.7
2018-09-29T10:00:11.241Z,523.1
2018-09-29T10:01:13.429Z,523.4
2018-09-29T10:02:15.289Z,523.4
2018-09-29T10:03:17.728Z,523.9
2018-09-29T10:04:19.606Z,523.6
2018-09-29T10:05:21.777Z,524.2
2018-09-29T10:06:24.391Z,523.9
2018-09-29T10:07:26.469Z,524.2
2018-09-29T10:08:28.635Z,524
2018-09-29T10:09:30.500Z,523.9
2018-09-29T10:10:32.644Z,523.7
2018-09-29T10:11:34.798Z,524.4
2018-09-29T10:12:36.964Z,524.5
2018-09-29T10:13:39.098Z,524.1
2018-09-29T10:14:41.533Z,523.9
2018-09-29T10:15:43.970Z,524.4
2018-09-29T10:16:46.398Z,524.4
2018-09-29T10:17:48.830Z,524.4
2018-09-29T10:18:51.271Z,523.3
2018-09-29T10:19:53.423Z,523.6
2018-09-29T10:20:55.610Z,523.3
2018-09-29T10:21:57.794Z,523.8
2018-09-29T10:22:59.952Z,523.7
2018-09-29T10:24:02.393Z,523.8
2018-09-29T10:25:04.554Z,524
2018-09-29T10:26:06.731Z,524.2
2018-09-29T10:27:08.912Z,523.6
2018-09-29T10:28:11.346Z,523.9
2018-09-29T10:29:13.780Z,523.9
2018-09-29T10:30:16.209Z,523.3
2018-09-29T10:31:18.639Z,523.9
2018-09-29T10:32:20.527Z,523.7
2018-09-29T10:33:22.963Z,523.4
2018-09-29T10:34:24.850Z,523.9
2018-09-29T10:35:26.745Z,523.8
2018-09-29T10:36:29.481Z,523.7
2018-09-29T10:37:31.970Z,523.8
2018-09-29T10:38:34.398Z,523.9
2018-09-29T10:39:36.843Z,523.7
2018-09-29T10:40:38.983Z,523.8
2018-09-29T10:41:41.417Z,524.2
2018-09-29T10:42:43.845Z,524
2018-09-29T10:43:46.277Z,523.8
2018-09-29T10:44:48.723Z,523.8
2018-09-29T10:45:51.171Z,523.9
2018-09-29T10:46:53.594Z,524.5
2018-09-29T10:47:56.042Z,524.4
2018-09-29T10:48:58.473Z,524.7
2018-09-29T10:50:00.648Z,524.3
2018-09-29T10:51:02.802Z,524.5
2018-09-29T10:52:04.970Z,524.6
2018-09-29T10:53:07.592Z,524.6
2018-09-29T10:54:10.033Z,524.5
2018-09-29T10:55:11.944Z,524.4
2018-09-29T10:56:14.094Z,524.9
2018-09-29T10:57:16.522Z,524.8
2018-09-29T10:58:18.681Z,525.1
2018-09-29T10:59:20.862Z,524.8
2018-09-29T11:00:23.284Z,525.6
2018-09-29T11:01:25.717Z,525.2
2018-09-29T11:02:27.970Z,525
2018-09-29T11:03:30.400Z,525.1
2018-09-29T11:04:32.564Z,525.1
2018-09-29T11:05:34.706Z,525.3
2018-09-29T11:06:37.157Z,525.7
2018-09-29T11:07:39.641Z,524.9
2018-09-29T11:08:42.086Z,525.6
2018-09-29T11:09:44.258Z,525.3
2018-09-29T11:10:46.687Z,525.5
2018-09-29T11:11:48.862Z,525.6
2018-09-29T11:12:51.026Z,525.6
2018-09-29T11:13:52.885Z,525.7
2018-09-29T11:14:55.328Z,525.8
2018-09-29T11:15:57.484Z,525.9
2018-09-29T11:16:59.926Z,525.6
2018-09-29T11:18:02.360Z,525.2
2018-09-29T11:19:04.524Z,525.8
2018-09-29T11:20:06.966Z,525.8
2018-09-29T11:21:09.414Z,525.8
2018-09-29T11:22:11.558Z,525.9
2018-09-29T11:23:13.727Z,526
2018-09-29T11:24:16.174Z,526.5
2018-09-29T11:25:18.604Z,526
2018-09-29T11:26:20.755Z,526.5
2018-09-29T11:27:23.439Z,526.3
2018-09-29T11:28:25.872Z,526.6
2018-09-29T11:29:28.311Z,526.4
2018-09-29T11:30:30.745Z,526.5
2018-09-29T11:31:33.177Z,526.9
2018-09-29T11:32:35.657Z,527.1
2018-09-29T11:33:38.136Z,527.4
2018-09-29T11:34:40.296Z,527.8
2018-09-29T11:35:42.194Z,527.3
2018-09-29T11:36:44.345Z,527
2018-09-29T11:37:46.783Z,527.4
2018-09-29T11:38:48.678Z,527.7
2018-09-29T11:39:51.123Z,528.1
2018-09-29T11:40:53.259Z,528.3
2018-09-29T11:41:55.425Z,528.3
2018-09-29T11:42:57.091Z,528.7
2018-09-29T11:43:59.532Z,528.4
2018-09-29T11:45:01.698Z,528.2
2018-09-29T11:46:04.142Z,528.7
2018-09-29T11:47:06.306Z,528.6
2018-09-29T11:48:08.753Z,528.3
2018-09-29T11:49:10.894Z,528.2
2018-09-29T11:50:13.330Z,528.5
2018-09-29T11:51:15.766Z,528.5
2018-09-29T11:52:17.943Z,528.4
2018-09-29T11:53:20.471Z,528.8
2018-09-29T11:54:22.736Z,529
2018-09-29T11:55:25.187Z,529.1
2018-09-29T11:56:27.614Z,529.3
2018-09-29T11:57:30.045Z,528.8
2018-09-29T11:58:32.190Z,529.1
2018-09-29T11:59:34.617Z,529
2018-09-29T12:00:37.046Z,529.3
2018-09-29T12:01:39.354Z,529.4
2018-09-29T12:02:41.486Z,529.3
2018-09-29T12:03:43.905Z,529.6
2018-09-29T12:04:46.346Z,529.9
2018-09-29T12:05:48.886Z,530
2018-09-29T12:06:51.356Z,530
2018-09-29T12:07:53.931Z,530.3
2018-09-29T12:08:55.818Z,530.4
2018-09-29T12:09:58.250Z,530.1
2018-09-29T12:11:00.143Z,530.9
2018-09-29T12:12:02.327Z,530.5
2018-09-29T12:13:04.745Z,531
2018-09-29T12:14:06.917Z,531.1
2018-09-29T12:15:09.348Z,531.4
2018-09-29T12:16:11.786Z,530.7
2018-09-29T12:17:14.222Z,530.8
2018-09-29T12:18:16.657Z,531.6
2018-09-29T12:19:18.846Z,531.4
2018-09-29T12:20:21.015Z,531.2
2018-09-29T12:21:23.186Z,531.9
2018-09-29T12:22:26.093Z,531.6
2018-09-29T12:23:28.585Z,532
2018-09-29T12:24:30.739Z,532
2018-09-29T12:25:33.186Z,532.1
2018-09-29T12:26:35.335Z,532.6
2018-09-29T12:27:37.504Z,532.4
2018-09-29T12:28:39.936Z,532.6
2018-09-29T12:29:42.181Z,532.5
2018-09-29T12:30:44.616Z,532
2018-09-29T12:31:47.052Z,532.2
2018-09-29T12:32:49.230Z,532.2
2018-09-29T12:33:51.666Z,532.7
2018-09-29T12:34:53.811Z,532.6
2018-09-29T12:35:55.694Z,532.5
2018-09-29T12:36:57.883Z,533
2018-09-29T12:38:00.109Z,532.7
2018-09-29T12:39:01.987Z,532.8
2018-09-29T12:40:04.148Z,532.8
2018-09-29T12:41:06.308Z,533
2018-09-29T12:42:08.176Z,533
2018-09-29T12:43:10.320Z,533.3
2018-09-29T12:44:11.941Z,533.7
2018-09-29T12:45:13.528Z,534
2018-09-29T12:46:15.428Z,534.3
2018-09-29T12:47:17.305Z,533.5
2018-09-29T12:48:19.189Z,534.3
2018-09-29T12:49:21.316Z,533.6
2018-09-29T12:50:22.929Z,533.7
2018-09-29T12:51:24.967Z,534.1
2018-09-29T12:52:27.127Z,534.2
2018-09-29T12:53:29.008Z,534.1
2018-09-29T12:54:30.897Z,533.9
2018-09-29T12:55:33.042Z,534.2
2018-09-29T12:56:35.178Z,534
2018-09-29T12:57:36.539Z,534.1
2018-09-29T12:58:38.971Z,534
2018-09-29T12:59:41.411Z,535.1
2018-09-29T13:00:43.577Z,535
2018-09-29T13:01:46.021Z,535.4
2018-09-29T13:02:48.146Z,534.9
2018-09-29T13:03:50.309Z,535
2018-09-29T13:04:52.766Z,535.8
2018-09-29T13:05:54.918Z,535.3
2018-09-29T13:06:57.366Z,535.5
2018-09-29T13:07:59.794Z,535.5
2018-09-29T13:09:02.236Z,535.4
2018-09-29T13:10:04.668Z,535.4
2018-09-29T13:11:07.789Z,535.6
2018-09-29T13:12:10.249Z,535.5
2018-09-29T13:13:12.687Z,535.9
2018-09-29T13:14:15.138Z,535.9
2018-09-29T13:15:17.581Z,536.2
2018-09-29T13:16:20.024Z,536.4
2018-09-29T13:17:22.162Z,537
2018-09-29T13:18:24.599Z,536.7
2018-09-29T13:19:26.491Z,537.4
2018-09-29T13:20:28.935Z,537.3
2018-09-29T13:21:31.116Z,537.2
2018-09-29T13:22:33.557Z,537.6
2018-09-29T13:23:35.685Z,538.2
2018-09-29T13:24:38.115Z,537.8
2018-09-29T13:25:40.547Z,538.1
2018-09-29T13:26:42.723Z,538.7
2018-09-29T13:27:44.893Z,538.6